Lawrence, MA (01842)

1:17 PM EST on February 01, 2015 (GMT -0500)
WB1CHU | Change Station
CLOSE
Current Station
Personal Weather Station
Location: Lawrence, MA
Elevation: 53 ft
Nearby Weather Stations
Active Advisory: Winter Storm Warning

Elev 53 ft 42.70 °N, 71.15 °W | Updated 8 seconds ago

Clear
Clear
25.0 °F
Feels Like 18 °F
N
6.0
Wind Variable Wind from WNW
Gusts 19.0 mph

Today
High -- | Low -- °F
--% Chance of Precip.
Yesterday
High -- | Low -- °F
Precip. -- in
6:59 AM 4:57 PM
Waxing Gibbous, 95% visible
Pressure 30.11 in
Visibility 10.0 miles
Clouds Clear
Windchill 18 °F
Dew Point 4 °F
Humidity 40%
Rainfall 0.00 in
Snow Depth Not available.
UV 3 out of 12
Pollen .10 out of 12
Air Quality Not available.
Flu Activity Not available.
METAR KLWM 011754Z 31011KT 10SM CLR M04/M15 A3010 RMK AO2 SLP195 T10391150 11033 21144 58018

More Conditions Fewer Conditions

Pressure 30.11 in
Visibility 10.0 miles
Clouds Clear
Windchill 18 °F
Dew Point 4 °F
Humidity 40%
Rainfall 0.00 in
Snow Depth Not available.
UV 3 out of 12
Pollen .10 out of 12
Air Quality Not available.
Flu Activity Not available.
METAR KLWM 011754Z 31011KT 10SM CLR M04/M15 A3010 RMK AO2 SLP195 T10391150 11033 21144 58018

More Conditions Fewer Conditions

10-Day Weather Forecast

Almanac

Astronomy

Feb. 01, 2015 Rise Set
Actual Time
Civil Twilight
Nautical Twilight
Astronomical Twilight
Moon
Length of Visible Light
Length of Day
Tomorrow will be .
, % of the Moon is Illuminated

Today's Extremes

State Highs State Lows

Community

WunderPhotos

Upload Photos

1,792,420 photos uploaded!

WunderBlogs® & News

Nearby

Air Quality

  Air Quality AQ Index Pollutant
Not available.

Snow Depth

Station Depth Elevation

Earthquake Activity

City Distance Mag. Time & Date
Minimum magnitude displayed is 2.5.

Coastal Water Temperatures

Place Temperature

Nearby Weather Stations